sensor_id;sensor_type;location;lat;lon;timestamp;P1;durP1;ratioP1;P2;durP2;ratioP2
16075;SDS011;8142;48.242;11.644;2023-06-22T00:02:17;7.13;;;4.50;;
16075;SDS011;8142;48.242;11.644;2023-06-22T00:04:43;7.67;;;4.47;;
16075;SDS011;8142;48.242;11.644;2023-06-22T00:07:09;8.37;;;4.20;;
16075;SDS011;8142;48.242;11.644;2023-06-22T00:09:35;7.43;;;4.37;;
16075;SDS011;8142;48.242;11.644;2023-06-22T00:12:01;9.83;;;4.27;;
16075;SDS011;8142;48.242;11.644;2023-06-22T00:14:27;9.03;;;4.10;;
16075;SDS011;8142;48.242;11.644;2023-06-22T00:16:53;7.93;;;4.30;;
16075;SDS011;8142;48.242;11.644;2023-06-22T00:19:21;7.40;;;4.33;;
16075;SDS011;8142;48.242;11.644;2023-06-22T00:21:47;6.53;;;4.53;;
16075;SDS011;8142;48.242;11.644;2023-06-22T00:24:18;8.83;;;4.33;;
16075;SDS011;8142;48.242;11.644;2023-06-22T00:26:45;8.70;;;4.50;;
16075;SDS011;8142;48.242;11.644;2023-06-22T00:29:11;10.57;;;4.20;;
16075;SDS011;8142;48.242;11.644;2023-06-22T00:31:37;6.40;;;4.27;;
16075;SDS011;8142;48.242;11.644;2023-06-22T00:34:03;5.77;;;4.17;;
16075;SDS011;8142;48.242;11.644;2023-06-22T00:36:29;8.20;;;4.00;;
16075;SDS011;8142;48.242;11.644;2023-06-22T00:38:55;7.10;;;4.20;;
16075;SDS011;8142;48.242;11.644;2023-06-22T00:41:21;7.40;;;4.17;;
16075;SDS011;8142;48.242;11.644;2023-06-22T00:43:47;7.93;;;4.37;;
16075;SDS011;8142;48.242;11.644;2023-06-22T00:46:12;6.43;;;3.90;;
16075;SDS011;8142;48.242;11.644;2023-06-22T00:48:38;7.97;;;4.67;;
16075;SDS011;8142;48.242;11.644;2023-06-22T00:51:07;9.13;;;4.37;;
16075;SDS011;8142;48.242;11.644;2023-06-22T00:53:33;8.50;;;4.20;;
16075;SDS011;8142;48.242;11.644;2023-06-22T00:56:00;6.23;;;4.03;;
16075;SDS011;8142;48.242;11.644;2023-06-22T00:58:28;8.47;;;4.20;;
16075;SDS011;8142;48.242;11.644;2023-06-22T01:00:54;6.73;;;4.30;;
16075;SDS011;8142;48.242;11.644;2023-06-22T01:03:21;9.10;;;4.17;;
16075;SDS011;8142;48.242;11.644;2023-06-22T01:05:47;8.07;;;4.40;;
16075;SDS011;8142;48.242;11.644;2023-06-22T01:10:54;7.07;;;3.93;;
16075;SDS011;8142;48.242;11.644;2023-06-22T01:16:11;6.90;;;4.07;;
16075;SDS011;8142;48.242;11.644;2023-06-22T01:18:53;8.17;;;4.30;;
16075;SDS011;8142;48.242;11.644;2023-06-22T01:21:23;7.80;;;4.13;;
16075;SDS011;8142;48.242;11.644;2023-06-22T01:24:02;9.43;;;4.47;;
16075;SDS011;8142;48.242;11.644;2023-06-22T01:29:24;7.70;;;3.90;;
16075;SDS011;8142;48.242;11.644;2023-06-22T01:31:52;6.90;;;4.33;;
16075;SDS011;8142;48.242;11.644;2023-06-22T01:34:21;8.27;;;4.60;;
16075;SDS011;8142;48.242;11.644;2023-06-22T01:36:48;7.93;;;4.60;;
16075;SDS011;8142;48.242;11.644;2023-06-22T01:39:15;6.73;;;4.57;;
16075;SDS011;8142;48.242;11.644;2023-06-22T01:41:42;8.20;;;4.57;;
16075;SDS011;8142;48.242;11.644;2023-06-22T01:44:08;8.27;;;4.60;;
16075;SDS011;8142;48.242;11.644;2023-06-22T01:46:36;7.07;;;4.07;;
16075;SDS011;8142;48.242;11.644;2023-06-22T01:49:02;10.30;;;4.93;;
16075;SDS011;8142;48.242;11.644;2023-06-22T01:51:29;6.23;;;4.40;;
16075;SDS011;8142;48.242;11.644;2023-06-22T01:53:56;9.37;;;4.57;;
16075;SDS011;8142;48.242;11.644;2023-06-22T01:56:21;9.90;;;4.70;;
16075;SDS011;8142;48.242;11.644;2023-06-22T01:59:04;10.67;;;4.80;;
16075;SDS011;8142;48.242;11.644;2023-06-22T02:01:44;8.40;;;4.80;;
16075;SDS011;8142;48.242;11.644;2023-06-22T02:04:20;7.53;;;4.73;;
16075;SDS011;8142;48.242;11.644;2023-06-22T02:06:53;8.07;;;4.70;;
16075;SDS011;8142;48.242;11.644;2023-06-22T02:09:22;6.00;;;4.73;;
16075;SDS011;8142;48.242;11.644;2023-06-22T02:11:50;8.00;;;5.20;;
16075;SDS011;8142;48.242;11.644;2023-06-22T02:14:20;8.40;;;5.00;;
16075;SDS011;8142;48.242;11.644;2023-06-22T02:16:47;9.33;;;4.90;;
16075;SDS011;8142;48.242;11.644;2023-06-22T02:19:12;7.93;;;4.90;;
16075;SDS011;8142;48.242;11.644;2023-06-22T02:21:41;7.47;;;4.90;;
16075;SDS011;8142;48.242;11.644;2023-06-22T02:24:07;10.40;;;5.00;;
16075;SDS011;8142;48.242;11.644;2023-06-22T02:26:33;8.70;;;4.97;;
16075;SDS011;8142;48.242;11.644;2023-06-22T02:28:59;7.93;;;5.13;;
16075;SDS011;8142;48.242;11.644;2023-06-22T02:31:25;8.37;;;5.30;;
16075;SDS011;8142;48.242;11.644;2023-06-22T02:33:57;7.13;;;5.00;;
16075;SDS011;8142;48.242;11.644;2023-06-22T02:36:24;8.50;;;5.20;;
16075;SDS011;8142;48.242;11.644;2023-06-22T02:38:52;9.33;;;5.00;;
16075;SDS011;8142;48.242;11.644;2023-06-22T02:41:19;8.33;;;4.80;;
16075;SDS011;8142;48.242;11.644;2023-06-22T02:43:45;10.03;;;5.43;;
16075;SDS011;8142;48.242;11.644;2023-06-22T02:46:12;10.77;;;4.90;;
16075;SDS011;8142;48.242;11.644;2023-06-22T02:48:41;9.63;;;5.30;;
16075;SDS011;8142;48.242;11.644;2023-06-22T02:51:07;9.17;;;5.20;;
16075;SDS011;8142;48.242;11.644;2023-06-22T02:53:34;8.07;;;5.03;;
16075;SDS011;8142;48.242;11.644;2023-06-22T02:56:01;10.13;;;5.20;;
16075;SDS011;8142;48.242;11.644;2023-06-22T02:58:31;8.37;;;4.67;;
16075;SDS011;8142;48.242;11.644;2023-06-22T03:01:04;7.80;;;4.90;;
16075;SDS011;8142;48.242;11.644;2023-06-22T03:03:33;7.47;;;4.67;;
16075;SDS011;8142;48.242;11.644;2023-06-22T03:05:58;8.67;;;4.97;;
16075;SDS011;8142;48.242;11.644;2023-06-22T03:08:26;9.30;;;5.03;;
16075;SDS011;8142;48.242;11.644;2023-06-22T03:10:52;7.83;;;5.43;;
16075;SDS011;8142;48.242;11.644;2023-06-22T03:13:18;9.80;;;4.87;;
16075;SDS011;8142;48.242;11.644;2023-06-22T03:15:44;9.20;;;5.20;;
16075;SDS011;8142;48.242;11.644;2023-06-22T03:18:11;9.97;;;5.60;;
16075;SDS011;8142;48.242;11.644;2023-06-22T03:20:36;8.67;;;5.40;;
16075;SDS011;8142;48.242;11.644;2023-06-22T03:23:02;10.07;;;4.93;;
16075;SDS011;8142;48.242;11.644;2023-06-22T03:25:28;8.00;;;5.03;;
16075;SDS011;8142;48.242;11.644;2023-06-22T03:27:54;8.87;;;5.13;;
16075;SDS011;8142;48.242;11.644;2023-06-22T03:30:20;9.80;;;5.53;;
16075;SDS011;8142;48.242;11.644;2023-06-22T03:32:49;12.67;;;5.50;;
16075;SDS011;8142;48.242;11.644;2023-06-22T03:35:15;8.30;;;5.00;;
16075;SDS011;8142;48.242;11.644;2023-06-22T03:37:40;9.33;;;5.60;;
16075;SDS011;8142;48.242;11.644;2023-06-22T03:40:07;10.57;;;5.50;;
16075;SDS011;8142;48.242;11.644;2023-06-22T03:42:34;9.03;;;5.50;;
16075;SDS011;8142;48.242;11.644;2023-06-22T03:45:01;11.13;;;5.37;;
16075;SDS011;8142;48.242;11.644;2023-06-22T03:47:28;11.57;;;5.40;;
16075;SDS011;8142;48.242;11.644;2023-06-22T03:49:54;7.57;;;5.07;;
16075;SDS011;8142;48.242;11.644;2023-06-22T03:52:23;11.40;;;5.83;;
16075;SDS011;8142;48.242;11.644;2023-06-22T03:54:50;12.47;;;6.00;;
16075;SDS011;8142;48.242;11.644;2023-06-22T03:57:16;9.67;;;5.87;;
16075;SDS011;8142;48.242;11.644;2023-06-22T03:59:42;11.27;;;5.30;;
16075;SDS011;8142;48.242;11.644;2023-06-22T04:02:08;10.53;;;5.67;;
16075;SDS011;8142;48.242;11.644;2023-06-22T04:04:34;12.13;;;5.53;;
16075;SDS011;8142;48.242;11.644;2023-06-22T04:07:00;8.47;;;5.90;;
16075;SDS011;8142;48.242;11.644;2023-06-22T04:09:26;9.30;;;5.70;;
16075;SDS011;8142;48.242;11.644;2023-06-22T04:11:52;9.57;;;5.63;;
16075;SDS011;8142;48.242;11.644;2023-06-22T04:14:18;8.77;;;5.80;;
16075;SDS011;8142;48.242;11.644;2023-06-22T04:16:43;10.87;;;6.03;;
16075;SDS011;8142;48.242;11.644;2023-06-22T04:19:09;11.13;;;5.50;;
16075;SDS011;8142;48.242;11.644;2023-06-22T04:21:41;11.37;;;5.27;;
16075;SDS011;8142;48.242;11.644;2023-06-22T04:24:08;9.50;;;5.87;;
16075;SDS011;8142;48.242;11.644;2023-06-22T04:26:34;10.90;;;5.40;;
16075;SDS011;8142;48.242;11.644;2023-06-22T04:29:02;11.03;;;5.43;;
16075;SDS011;8142;48.242;11.644;2023-06-22T04:31:34;9.87;;;5.87;;
16075;SDS011;8142;48.242;11.644;2023-06-22T04:34:03;8.30;;;5.60;;
16075;SDS011;8142;48.242;11.644;2023-06-22T04:36:40;7.80;;;5.40;;
16075;SDS011;8142;48.242;11.644;2023-06-22T04:39:07;10.03;;;5.20;;
16075;SDS011;8142;48.242;11.644;2023-06-22T04:41:35;10.30;;;5.60;;
16075;SDS011;8142;48.242;11.644;2023-06-22T04:44:08;9.80;;;5.60;;
16075;SDS011;8142;48.242;11.644;2023-06-22T04:46:38;10.27;;;6.00;;
16075;SDS011;8142;48.242;11.644;2023-06-22T04:49:07;10.87;;;6.03;;
16075;SDS011;8142;48.242;11.644;2023-06-22T04:51:39;9.37;;;5.33;;
16075;SDS011;8142;48.242;11.644;2023-06-22T04:54:06;9.73;;;6.47;;
16075;SDS011;8142;48.242;11.644;2023-06-22T04:56:32;10.37;;;5.53;;
16075;SDS011;8142;48.242;11.644;2023-06-22T04:58:59;6.90;;;5.37;;
16075;SDS011;8142;48.242;11.644;2023-06-22T05:01:25;11.93;;;6.10;;
16075;SDS011;8142;48.242;11.644;2023-06-22T05:03:51;9.77;;;5.37;;
16075;SDS011;8142;48.242;11.644;2023-06-22T05:06:26;10.33;;;5.80;;
16075;SDS011;8142;48.242;11.644;2023-06-22T05:08:56;9.77;;;5.40;;
16075;SDS011;8142;48.242;11.644;2023-06-22T05:11:29;9.97;;;5.73;;
16075;SDS011;8142;48.242;11.644;2023-06-22T05:13:55;11.47;;;6.17;;
16075;SDS011;8142;48.242;11.644;2023-06-22T05:16:21;11.27;;;6.00;;
16075;SDS011;8142;48.242;11.644;2023-06-22T05:18:52;10.50;;;5.70;;
16075;SDS011;8142;48.242;11.644;2023-06-22T05:21:23;9.20;;;5.83;;
16075;SDS011;8142;48.242;11.644;2023-06-22T05:23:50;11.13;;;6.03;;
16075;SDS011;8142;48.242;11.644;2023-06-22T05:26:17;12.50;;;6.30;;
16075;SDS011;8142;48.242;11.644;2023-06-22T05:28:46;12.23;;;6.40;;
16075;SDS011;8142;48.242;11.644;2023-06-22T05:31:16;10.77;;;5.93;;
16075;SDS011;8142;48.242;11.644;2023-06-22T05:33:42;8.73;;;5.50;;
16075;SDS011;8142;48.242;11.644;2023-06-22T05:36:09;10.10;;;5.60;;
16075;SDS011;8142;48.242;11.644;2023-06-22T05:38:36;11.70;;;6.17;;
16075;SDS011;8142;48.242;11.644;2023-06-22T05:41:02;8.77;;;5.43;;
16075;SDS011;8142;48.242;11.644;2023-06-22T05:43:28;11.20;;;5.53;;
16075;SDS011;8142;48.242;11.644;2023-06-22T05:45:54;9.87;;;5.37;;
16075;SDS011;8142;48.242;11.644;2023-06-22T05:48:20;9.43;;;5.23;;
16075;SDS011;8142;48.242;11.644;2023-06-22T05:50:46;7.50;;;5.20;;
16075;SDS011;8142;48.242;11.644;2023-06-22T05:53:11;8.73;;;5.47;;
16075;SDS011;8142;48.242;11.644;2023-06-22T05:55:37;7.93;;;4.93;;
16075;SDS011;8142;48.242;11.644;2023-06-22T05:58:03;7.93;;;4.60;;
16075;SDS011;8142;48.242;11.644;2023-06-22T06:00:29;8.87;;;5.70;;
16075;SDS011;8142;48.242;11.644;2023-06-22T06:02:56;7.77;;;5.23;;
16075;SDS011;8142;48.242;11.644;2023-06-22T06:05:22;9.27;;;5.10;;
16075;SDS011;8142;48.242;11.644;2023-06-22T06:07:51;10.77;;;5.93;;
16075;SDS011;8142;48.242;11.644;2023-06-22T06:10:16;9.67;;;5.23;;
16075;SDS011;8142;48.242;11.644;2023-06-22T06:12:42;8.83;;;4.63;;
16075;SDS011;8142;48.242;11.644;2023-06-22T06:15:08;9.67;;;5.07;;
16075;SDS011;8142;48.242;11.644;2023-06-22T06:17:34;10.10;;;5.37;;
16075;SDS011;8142;48.242;11.644;2023-06-22T06:20:00;8.67;;;4.90;;
16075;SDS011;8142;48.242;11.644;2023-06-22T06:22:28;8.63;;;5.03;;
16075;SDS011;8142;48.242;11.644;2023-06-22T06:24:54;10.07;;;5.00;;
16075;SDS011;8142;48.242;11.644;2023-06-22T06:27:20;9.37;;;4.87;;
16075;SDS011;8142;48.242;11.644;2023-06-22T06:29:46;7.50;;;4.37;;
16075;SDS011;8142;48.242;11.644;2023-06-22T06:32:13;10.13;;;4.87;;
16075;SDS011;8142;48.242;11.644;2023-06-22T06:34:40;9.57;;;5.10;;
16075;SDS011;8142;48.242;11.644;2023-06-22T06:37:06;9.20;;;4.60;;
16075;SDS011;8142;48.242;11.644;2023-06-22T06:39:31;9.80;;;4.97;;
16075;SDS011;8142;48.242;11.644;2023-06-22T06:41:57;9.73;;;4.97;;
16075;SDS011;8142;48.242;11.644;2023-06-22T06:44:23;10.23;;;5.13;;
16075;SDS011;8142;48.242;11.644;2023-06-22T06:46:49;11.77;;;4.87;;
16075;SDS011;8142;48.242;11.644;2023-06-22T06:49:15;10.53;;;5.17;;
16075;SDS011;8142;48.242;11.644;2023-06-22T06:51:41;11.53;;;5.30;;
16075;SDS011;8142;48.242;11.644;2023-06-22T06:54:07;9.37;;;5.57;;
16075;SDS011;8142;48.242;11.644;2023-06-22T06:56:33;7.80;;;4.73;;
16075;SDS011;8142;48.242;11.644;2023-06-22T06:58:58;10.93;;;5.27;;
16075;SDS011;8142;48.242;11.644;2023-06-22T07:01:24;8.00;;;4.57;;
16075;SDS011;8142;48.242;11.644;2023-06-22T07:03:50;10.80;;;5.30;;
16075;SDS011;8142;48.242;11.644;2023-06-22T07:06:16;9.83;;;5.53;;
16075;SDS011;8142;48.242;11.644;2023-06-22T07:08:42;11.43;;;5.10;;
16075;SDS011;8142;48.242;11.644;2023-06-22T07:11:08;11.10;;;4.77;;
16075;SDS011;8142;48.242;11.644;2023-06-22T07:13:34;9.47;;;5.27;;
16075;SDS011;8142;48.242;11.644;2023-06-22T07:15:59;10.70;;;5.30;;
16075;SDS011;8142;48.242;11.644;2023-06-22T07:18:25;9.67;;;4.67;;
16075;SDS011;8142;48.242;11.644;2023-06-22T07:20:52;14.40;;;5.30;;
16075;SDS011;8142;48.242;11.644;2023-06-22T07:23:18;11.63;;;5.20;;
16075;SDS011;8142;48.242;11.644;2023-06-22T07:25:43;8.13;;;4.40;;
16075;SDS011;8142;48.242;11.644;2023-06-22T07:28:09;9.13;;;4.43;;
16075;SDS011;8142;48.242;11.644;2023-06-22T07:30:35;9.27;;;4.50;;
16075;SDS011;8142;48.242;11.644;2023-06-22T07:33:01;10.37;;;4.97;;
16075;SDS011;8142;48.242;11.644;2023-06-22T07:35:29;10.47;;;5.20;;
16075;SDS011;8142;48.242;11.644;2023-06-22T07:37:56;9.83;;;5.17;;
16075;SDS011;8142;48.242;11.644;2023-06-22T07:40:22;11.60;;;5.13;;
16075;SDS011;8142;48.242;11.644;2023-06-22T07:42:47;10.17;;;5.27;;
16075;SDS011;8142;48.242;11.644;2023-06-22T07:45:13;11.30;;;5.17;;
16075;SDS011;8142;48.242;11.644;2023-06-22T07:47:39;8.63;;;4.80;;
16075;SDS011;8142;48.242;11.644;2023-06-22T07:50:05;10.17;;;4.77;;
16075;SDS011;8142;48.242;11.644;2023-06-22T07:52:31;7.27;;;4.80;;
16075;SDS011;8142;48.242;11.644;2023-06-22T07:54:57;10.93;;;5.07;;
16075;SDS011;8142;48.242;11.644;2023-06-22T07:57:23;11.57;;;5.00;;
16075;SDS011;8142;48.242;11.644;2023-06-22T07:59:57;9.73;;;4.93;;
16075;SDS011;8142;48.242;11.644;2023-06-22T08:02:24;10.00;;;5.30;;
16075;SDS011;8142;48.242;11.644;2023-06-22T08:04:50;12.50;;;5.63;;
16075;SDS011;8142;48.242;11.644;2023-06-22T08:07:16;9.17;;;5.07;;
16075;SDS011;8142;48.242;11.644;2023-06-22T08:09:48;10.80;;;5.43;;
16075;SDS011;8142;48.242;11.644;2023-06-22T08:12:15;8.40;;;4.97;;
16075;SDS011;8142;48.242;11.644;2023-06-22T08:14:41;9.43;;;5.17;;
16075;SDS011;8142;48.242;11.644;2023-06-22T08:17:11;12.93;;;6.20;;
16075;SDS011;8142;48.242;11.644;2023-06-22T08:19:37;11.03;;;4.87;;
16075;SDS011;8142;48.242;11.644;2023-06-22T08:22:03;8.93;;;4.43;;
16075;SDS011;8142;48.242;11.644;2023-06-22T08:24:29;9.00;;;4.77;;
16075;SDS011;8142;48.242;11.644;2023-06-22T08:26:55;9.80;;;5.03;;
16075;SDS011;8142;48.242;11.644;2023-06-22T08:29:21;11.70;;;5.50;;
16075;SDS011;8142;48.242;11.644;2023-06-22T08:31:47;14.77;;;5.40;;
16075;SDS011;8142;48.242;11.644;2023-06-22T08:34:13;7.87;;;5.43;;
16075;SDS011;8142;48.242;11.644;2023-06-22T08:36:39;9.83;;;5.47;;
16075;SDS011;8142;48.242;11.644;2023-06-22T08:39:08;10.87;;;5.50;;
16075;SDS011;8142;48.242;11.644;2023-06-22T08:41:34;9.80;;;5.50;;
16075;SDS011;8142;48.242;11.644;2023-06-22T08:44:00;12.87;;;6.70;;
16075;SDS011;8142;48.242;11.644;2023-06-22T08:46:26;11.27;;;5.50;;
16075;SDS011;8142;48.242;11.644;2023-06-22T08:48:57;14.03;;;6.33;;
16075;SDS011;8142;48.242;11.644;2023-06-22T08:51:24;13.30;;;5.90;;
16075;SDS011;8142;48.242;11.644;2023-06-22T08:53:50;9.90;;;5.80;;
16075;SDS011;8142;48.242;11.644;2023-06-22T08:56:16;10.60;;;5.47;;
16075;SDS011;8142;48.242;11.644;2023-06-22T08:58:41;11.27;;;5.13;;
16075;SDS011;8142;48.242;11.644;2023-06-22T09:01:07;9.77;;;5.27;;
16075;SDS011;8142;48.242;11.644;2023-06-22T09:03:33;11.47;;;5.17;;
16075;SDS011;8142;48.242;11.644;2023-06-22T09:06:01;9.63;;;5.37;;
16075;SDS011;8142;48.242;11.644;2023-06-22T09:08:27;11.87;;;5.33;;
16075;SDS011;8142;48.242;11.644;2023-06-22T09:10:53;10.77;;;5.70;;
16075;SDS011;8142;48.242;11.644;2023-06-22T09:13:19;11.60;;;6.30;;
16075;SDS011;8142;48.242;11.644;2023-06-22T09:15:45;12.17;;;6.50;;
16075;SDS011;8142;48.242;11.644;2023-06-22T09:18:11;9.50;;;6.07;;
16075;SDS011;8142;48.242;11.644;2023-06-22T09:20:38;10.03;;;5.27;;
16075;SDS011;8142;48.242;11.644;2023-06-22T09:23:04;11.07;;;5.70;;
16075;SDS011;8142;48.242;11.644;2023-06-22T09:25:30;15.53;;;6.53;;
16075;SDS011;8142;48.242;11.644;2023-06-22T09:27:56;10.47;;;5.60;;
16075;SDS011;8142;48.242;11.644;2023-06-22T09:30:22;13.77;;;5.90;;
16075;SDS011;8142;48.242;11.644;2023-06-22T09:32:48;15.47;;;6.27;;
16075;SDS011;8142;48.242;11.644;2023-06-22T09:35:14;12.60;;;5.60;;
16075;SDS011;8142;48.242;11.644;2023-06-22T09:37:40;9.00;;;5.87;;
16075;SDS011;8142;48.242;11.644;2023-06-22T09:40:06;10.27;;;5.80;;
16075;SDS011;8142;48.242;11.644;2023-06-22T09:42:37;12.53;;;5.80;;
16075;SDS011;8142;48.242;11.644;2023-06-22T09:45:04;10.30;;;5.50;;
16075;SDS011;8142;48.242;11.644;2023-06-22T09:47:31;10.10;;;5.50;;
16075;SDS011;8142;48.242;11.644;2023-06-22T09:49:57;9.03;;;5.33;;
16075;SDS011;8142;48.242;11.644;2023-06-22T09:52:25;14.37;;;5.50;;
16075;SDS011;8142;48.242;11.644;2023-06-22T09:54:51;15.80;;;6.10;;
16075;SDS011;8142;48.242;11.644;2023-06-22T09:57:17;13.07;;;6.13;;
16075;SDS011;8142;48.242;11.644;2023-06-22T09:59:42;10.33;;;6.07;;
16075;SDS011;8142;48.242;11.644;2023-06-22T10:02:08;12.20;;;5.87;;
16075;SDS011;8142;48.242;11.644;2023-06-22T10:04:35;14.23;;;6.27;;
16075;SDS011;8142;48.242;11.644;2023-06-22T10:07:01;14.87;;;7.00;;
16075;SDS011;8142;48.242;11.644;2023-06-22T10:09:28;14.43;;;6.73;;
16075;SDS011;8142;48.242;11.644;2023-06-22T10:11:54;10.77;;;6.10;;
16075;SDS011;8142;48.242;11.644;2023-06-22T10:14:20;8.57;;;5.40;;
16075;SDS011;8142;48.242;11.644;2023-06-22T10:16:45;14.13;;;6.40;;
16075;SDS011;8142;48.242;11.644;2023-06-22T10:19:11;15.87;;;5.90;;
16075;SDS011;8142;48.242;11.644;2023-06-22T10:21:37;13.20;;;6.03;;
16075;SDS011;8142;48.242;11.644;2023-06-22T10:24:03;11.97;;;5.90;;
16075;SDS011;8142;48.242;11.644;2023-06-22T10:26:34;17.77;;;6.20;;
16075;SDS011;8142;48.242;11.644;2023-06-22T10:29:03;13.13;;;5.97;;
16075;SDS011;8142;48.242;11.644;2023-06-22T10:31:30;15.73;;;6.27;;
16075;SDS011;8142;48.242;11.644;2023-06-22T10:33:56;12.47;;;6.03;;
16075;SDS011;8142;48.242;11.644;2023-06-22T10:36:22;10.43;;;5.70;;
16075;SDS011;8142;48.242;11.644;2023-06-22T10:38:48;11.20;;;5.53;;
16075;SDS011;8142;48.242;11.644;2023-06-22T10:41:14;14.03;;;6.13;;
16075;SDS011;8142;48.242;11.644;2023-06-22T10:43:41;14.63;;;6.90;;
16075;SDS011;8142;48.242;11.644;2023-06-22T10:46:07;12.07;;;6.20;;
16075;SDS011;8142;48.242;11.644;2023-06-22T10:48:33;14.87;;;6.80;;
16075;SDS011;8142;48.242;11.644;2023-06-22T10:50:59;15.70;;;6.40;;
16075;SDS011;8142;48.242;11.644;2023-06-22T10:53:25;13.83;;;5.93;;
16075;SDS011;8142;48.242;11.644;2023-06-22T10:55:51;13.27;;;6.20;;
16075;SDS011;8142;48.242;11.644;2023-06-22T10:58:18;14.20;;;6.40;;
16075;SDS011;8142;48.242;11.644;2023-06-22T11:00:44;13.10;;;6.23;;
16075;SDS011;8142;48.242;11.644;2023-06-22T11:03:10;15.00;;;6.20;;
16075;SDS011;8142;48.242;11.644;2023-06-22T11:05:37;10.67;;;6.30;;
16075;SDS011;8142;48.242;11.644;2023-06-22T11:08:03;15.03;;;6.20;;
16075;SDS011;8142;48.242;11.644;2023-06-22T11:10:29;14.20;;;6.83;;
16075;SDS011;8142;48.242;11.644;2023-06-22T11:12:55;12.13;;;6.03;;
16075;SDS011;8142;48.242;11.644;2023-06-22T11:15:23;14.50;;;6.37;;
16075;SDS011;8142;48.242;11.644;2023-06-22T11:17:49;14.73;;;6.30;;
16075;SDS011;8142;48.242;11.644;2023-06-22T11:20:15;9.90;;;6.13;;
16075;SDS011;8142;48.242;11.644;2023-06-22T11:22:41;18.63;;;6.20;;
16075;SDS011;8142;48.242;11.644;2023-06-22T11:25:07;15.63;;;7.03;;
16075;SDS011;8142;48.242;11.644;2023-06-22T11:27:34;13.77;;;6.70;;
16075;SDS011;8142;48.242;11.644;2023-06-22T11:30:00;16.97;;;7.00;;
16075;SDS011;8142;48.242;11.644;2023-06-22T11:32:26;18.13;;;7.10;;
16075;SDS011;8142;48.242;11.644;2023-06-22T11:34:52;16.03;;;6.80;;
16075;SDS011;8142;48.242;11.644;2023-06-22T11:37:17;14.27;;;6.90;;
16075;SDS011;8142;48.242;11.644;2023-06-22T11:39:43;19.37;;;7.63;;
16075;SDS011;8142;48.242;11.644;2023-06-22T11:42:09;16.17;;;7.23;;
16075;SDS011;8142;48.242;11.644;2023-06-22T11:44:35;24.40;;;11.47;;
16075;SDS011;8142;48.242;11.644;2023-06-22T11:47:01;18.17;;;7.83;;
16075;SDS011;8142;48.242;11.644;2023-06-22T11:49:32;16.57;;;8.40;;
16075;SDS011;8142;48.242;11.644;2023-06-22T11:51:58;15.37;;;7.10;;
16075;SDS011;8142;48.242;11.644;2023-06-22T11:54:24;14.30;;;6.50;;
16075;SDS011;8142;48.242;11.644;2023-06-22T11:56:50;16.50;;;8.07;;
16075;SDS011;8142;48.242;11.644;2023-06-22T11:59:16;13.83;;;7.03;;
16075;SDS011;8142;48.242;11.644;2023-06-22T12:01:42;16.67;;;7.10;;
16075;SDS011;8142;48.242;11.644;2023-06-22T12:04:07;18.83;;;7.63;;
16075;SDS011;8142;48.242;11.644;2023-06-22T12:06:37;12.10;;;6.00;;
16075;SDS011;8142;48.242;11.644;2023-06-22T12:09:06;15.40;;;6.57;;
16075;SDS011;8142;48.242;11.644;2023-06-22T12:11:33;14.17;;;6.43;;
16075;SDS011;8142;48.242;11.644;2023-06-22T12:13:59;13.37;;;7.03;;
16075;SDS011;8142;48.242;11.644;2023-06-22T12:16:27;12.83;;;6.73;;
16075;SDS011;8142;48.242;11.644;2023-06-22T12:18:54;16.67;;;7.10;;
16075;SDS011;8142;48.242;11.644;2023-06-22T12:21:20;14.23;;;6.20;;
16075;SDS011;8142;48.242;11.644;2023-06-22T12:23:45;15.38;;;6.30;;
16075;SDS011;8142;48.242;11.644;2023-06-22T12:26:11;14.33;;;6.53;;
16075;SDS011;8142;48.242;11.644;2023-06-22T12:28:37;19.83;;;7.63;;
16075;SDS011;8142;48.242;11.644;2023-06-22T12:31:03;14.77;;;5.80;;
16075;SDS011;8142;48.242;11.644;2023-06-22T12:33:29;17.47;;;6.80;;
16075;SDS011;8142;48.242;11.644;2023-06-22T12:35:56;15.53;;;6.03;;
16075;SDS011;8142;48.242;11.644;2023-06-22T12:38:22;14.43;;;6.50;;
16075;SDS011;8142;48.242;11.644;2023-06-22T12:40:51;16.00;;;7.10;;
16075;SDS011;8142;48.242;11.644;2023-06-22T12:43:17;12.37;;;6.50;;
16075;SDS011;8142;48.242;11.644;2023-06-22T12:45:43;12.13;;;6.23;;
16075;SDS011;8142;48.242;11.644;2023-06-22T12:48:09;14.07;;;6.32;;
16075;SDS011;8142;48.242;11.644;2023-06-22T12:50:35;16.47;;;6.27;;
16075;SDS011;8142;48.242;11.644;2023-06-22T12:53:01;14.90;;;6.22;;
16075;SDS011;8142;48.242;11.644;2023-06-22T12:55:29;13.37;;;6.47;;
16075;SDS011;8142;48.242;11.644;2023-06-22T12:57:55;13.47;;;5.97;;
16075;SDS011;8142;48.242;11.644;2023-06-22T13:00:21;14.55;;;6.00;;
16075;SDS011;8142;48.242;11.644;2023-06-22T13:02:47;12.77;;;6.03;;
16075;SDS011;8142;48.242;11.644;2023-06-22T13:05:13;12.02;;;5.80;;
16075;SDS011;8142;48.242;11.644;2023-06-22T13:07:39;13.77;;;6.57;;
16075;SDS011;8142;48.242;11.644;2023-06-22T13:10:07;13.18;;;5.90;;
16075;SDS011;8142;48.242;11.644;2023-06-22T13:12:33;12.10;;;5.95;;
16075;SDS011;8142;48.242;11.644;2023-06-22T13:15:00;13.82;;;6.32;;
16075;SDS011;8142;48.242;11.644;2023-06-22T13:17:26;12.30;;;6.15;;
16075;SDS011;8142;48.242;11.644;2023-06-22T13:19:52;14.43;;;6.00;;
16075;SDS011;8142;48.242;11.644;2023-06-22T13:22:51;14.98;;;6.38;;
16075;SDS011;8142;48.242;11.644;2023-06-22T13:25:10;15.75;;;6.43;;
16075;SDS011;8142;48.242;11.644;2023-06-22T13:27:40;12.90;;;6.13;;
16075;SDS011;8142;48.242;11.644;2023-06-22T13:30:07;16.00;;;5.90;;
16075;SDS011;8142;48.242;11.644;2023-06-22T13:32:34;11.20;;;5.57;;
16075;SDS011;8142;48.242;11.644;2023-06-22T13:35:00;17.05;;;6.18;;
16075;SDS011;8142;48.242;11.644;2023-06-22T13:37:26;12.40;;;5.43;;
16075;SDS011;8142;48.242;11.644;2023-06-22T13:39:52;18.05;;;6.60;;
16075;SDS011;8142;48.242;11.644;2023-06-22T13:42:21;15.95;;;6.60;;
16075;SDS011;8142;48.242;11.644;2023-06-22T13:44:47;15.32;;;6.50;;
16075;SDS011;8142;48.242;11.644;2023-06-22T13:47:13;13.45;;;5.85;;
16075;SDS011;8142;48.242;11.644;2023-06-22T13:49:39;16.90;;;6.65;;
16075;SDS011;8142;48.242;11.644;2023-06-22T13:52:05;9.27;;;5.25;;
16075;SDS011;8142;48.242;11.644;2023-06-22T13:54:35;16.05;;;6.47;;
16075;SDS011;8142;48.242;11.644;2023-06-22T13:57:02;13.65;;;6.65;;
16075;SDS011;8142;48.242;11.644;2023-06-22T13:59:28;13.65;;;6.40;;
16075;SDS011;8142;48.242;11.644;2023-06-22T14:01:54;16.90;;;5.93;;
16075;SDS011;8142;48.242;11.644;2023-06-22T14:04:21;12.13;;;5.47;;
16075;SDS011;8142;48.242;11.644;2023-06-22T14:06:50;16.05;;;5.88;;
16075;SDS011;8142;48.242;11.644;2023-06-22T14:09:16;11.43;;;6.13;;
16075;SDS011;8142;48.242;11.644;2023-06-22T14:11:42;13.90;;;5.88;;
16075;SDS011;8142;48.242;11.644;2023-06-22T14:14:08;16.45;;;6.47;;
16075;SDS011;8142;48.242;11.644;2023-06-22T14:16:35;16.30;;;6.03;;
16075;SDS011;8142;48.242;11.644;2023-06-22T14:19:01;12.88;;;6.07;;
16075;SDS011;8142;48.242;11.644;2023-06-22T14:21:27;11.82;;;5.82;;
16075;SDS011;8142;48.242;11.644;2023-06-22T14:23:53;14.77;;;5.82;;
16075;SDS011;8142;48.242;11.644;2023-06-22T14:26:19;14.18;;;5.63;;
16075;SDS011;8142;48.242;11.644;2023-06-22T14:28:45;12.60;;;5.60;;
16075;SDS011;8142;48.242;11.644;2023-06-22T14:31:17;11.18;;;6.00;;
16075;SDS011;8142;48.242;11.644;2023-06-22T14:33:45;13.82;;;5.75;;
16075;SDS011;8142;48.242;11.644;2023-06-22T14:36:15;17.60;;;6.13;;
16075;SDS011;8142;48.242;11.644;2023-06-22T14:38:42;12.55;;;6.07;;
16075;SDS011;8142;48.242;11.644;2023-06-22T14:41:09;11.23;;;5.28;;
16075;SDS011;8142;48.242;11.644;2023-06-22T14:43:35;15.32;;;6.28;;
16075;SDS011;8142;48.242;11.644;2023-06-22T14:46:01;13.68;;;5.50;;
16075;SDS011;8142;48.242;11.644;2023-06-22T14:48:27;12.75;;;5.28;;